Dades meteomassalio
Diari Summary for Juliol 16, 2017 Units:  Metric    English   Both
« Previous Day
Next Day »
Diari Semanal Mensual Anual Personalitzat
  Maxima: Minima: Mijana:
Temperatura: -17.8 °C -8.1 °C -2.9 °C
Rosada: -17.8 °C -10.9 °C -9.2 °C
Humitat: Humidity % 32 % 52 %
Velocitat del vent: 0 km/h 0 km/h 11.1 km/h
Racha vent: 0 km/h - -
Vent:- - ESE
Pressio: 0 hPa 34361.1 hPa -
Pluja: 0 mm    
Historical Graphs
 
 
Tabular Data for Juliol 16, 2017
Time Temperature Dew Point Pressure Wind Wind Speed Wind Gust Humidity Rainfall Rate (Hourly) solar Conditions
-17.8 °C -17.8 °C 0 hPa Calm     Humidity % 0 mm SolarRadiationWatts/m^2 W/m2 Conditions
00:02 -4.3 °C -8.9 °C 34452.6 hPa Calm     60 % 0 mm 0.0 W/m2 CLR
00:07 -4.4 °C -9 °C 34452.6 hPa Calm     60 % 0 mm 0.0 W/m2 CLR
00:12 -4.4 °C -8.9 °C 34452.6 hPa Calm     61 % 0 mm 0.0 W/m2 CLR
00:17 -4.5 °C -8.8 °C 34452.6 hPa Calm     62 % 0 mm 0.0 W/m2 CLR
00:22 -4.6 °C -8.8 °C 34452.6 hPa Calm     62 % 0 mm 0.0 W/m2 CLR
00:27 -4.6 °C -8.9 °C 34452.6 hPa Calm     62 % 0 mm 0.0 W/m2 CLR
00:32 -4.7 °C -8.8 °C 34462.7 hPa Calm     63 % 0 mm 0.0 W/m2 CLR
00:37 -4.8 °C -8.9 °C 34462.7 hPa Calm     63 % 0 mm 0.0 W/m2 CLR
00:42 -4.8 °C -8.8 °C 34462.7 hPa Calm     64 % 0 mm 0.0 W/m2 CLR
00:47 -4.8 °C -8.8 °C 34462.7 hPa Calm     64 % 0 mm 0.0 W/m2 CLR
00:52 -4.8 °C -8.8 °C 34462.7 hPa Calm     64 % 0 mm 0.0 W/m2 CLR
00:57 -4.9 °C -8.7 °C 34462.7 hPa Calm     65 % 0 mm 0.0 W/m2 CLR
01:02 -4.9 °C -8.8 °C 34462.7 hPa Calm     64 % 0 mm 0.0 W/m2 CLR
01:07 -4.9 °C -8.8 °C 34462.7 hPa Calm     65 % 0 mm 0.0 W/m2 CLR
01:12 -4.9 °C -8.8 °C 34462.7 hPa Calm     65 % 0 mm 0.0 W/m2 CLR
01:17 -5 °C -8.7 °C 34476.3 hPa Calm     66 % 0 mm 0.0 W/m2 CLR
01:22 -5.1 °C -8.8 °C 34476.3 hPa Calm     66 % 0 mm 0.0 W/m2 CLR
01:27 -5.1 °C -8.8 °C 34476.3 hPa Calm     66 % 0 mm 0.0 W/m2 CLR
01:32 -5.1 °C -8.8 °C 34476.3 hPa Calm     66 % 0 mm 0.0 W/m2 CLR
01:37 -5.2 °C -8.9 °C 34476.3 hPa Calm     66 % 0 mm 0.0 W/m2 CLR
01:42 -5.2 °C -8.9 °C 34476.3 hPa Calm     66 % 0 mm 0.0 W/m2 CLR
01:47 -5.2 °C -8.9 °C 34476.3 hPa Calm     66 % 0 mm 0.0 W/m2 CLR
01:52 -5.3 °C -9 °C 34476.3 hPa Calm     66 % 0 mm 0.0 W/m2 CLR
01:57 -5.4 °C -9.1 °C 34476.3 hPa Calm     66 % 0 mm 0.0 W/m2 CLR
02:02 -5.4 °C -9.1 °C 34476.3 hPa Calm     66 % 0 mm 0.0 W/m2 CLR
02:07 -5.4 °C -9.3 °C 34476.3 hPa Calm     65 % 0 mm 0.0 W/m2 CLR
02:12 -5.4 °C -9.3 °C 34476.3 hPa Calm     65 % 0 mm 0.0 W/m2 CLR
02:17 -5.4 °C -9.2 °C 34476.3 hPa Calm     65 % 0 mm 0.0 W/m2 CLR
02:22 -5.4 °C -9.3 °C 34486.4 hPa Calm     65 % 0 mm 0.0 W/m2 CLR
02:27 -5.6 °C -9.3 °C 34486.4 hPa Calm     66 % 0 mm 0.0 W/m2 CLR
02:32 -5.7 °C -9.1 °C 34486.4 hPa Calm     68 % 0 mm 0.0 W/m2 CLR
02:37 -5.8 °C -9.3 °C 34486.4 hPa Calm     67 % 0 mm 0.0 W/m2 CLR
02:42 -5.8 °C -9.6 °C 34486.4 hPa Calm     65 % 0 mm 0.0 W/m2 CLR
02:47 -5.8 °C -9.4 °C 34486.4 hPa Calm     66 % 0 mm 0.0 W/m2 CLR
02:52 -5.8 °C -9.3 °C 34486.4 hPa Calm     67 % 0 mm 0.0 W/m2 CLR
02:57 -5.9 °C -9.4 °C 34486.4 hPa Calm     67 % 0 mm 0.0 W/m2 CLR
03:02 -5.9 °C -9.4 °C 34486.4 hPa Calm     68 % 0 mm 0.0 W/m2 CLR
03:07 -6.1 °C -9.6 °C 34486.4 hPa Calm     67 % 0 mm 0.0 W/m2 CLR
03:12 -6.1 °C -9.5 °C 34486.4 hPa Calm     68 % 0 mm 0.0 W/m2 CLR
03:17 -6.2 °C -9.9 °C 34486.4 hPa Calm     65 % 0 mm 0.0 W/m2 CLR
03:22 -6.2 °C -9.7 °C 34486.4 hPa Calm     67 % 0 mm 0.0 W/m2 CLR
03:27 -6.2 °C -10 °C 34496.6 hPa Calm     65 % 0 mm 0.0 W/m2 CLR
03:32 -6.2 °C -9.9 °C 34496.6 hPa Calm     66 % 0 mm 0.0 W/m2 CLR
03:37 -6.3 °C -9.9 °C 34496.6 hPa Calm     66 % 0 mm 0.0 W/m2 CLR
03:42 -6.4 °C -10.1 °C 34496.6 hPa Calm     66 % 0 mm 0.0 W/m2 CLR
03:47 -6.4 °C -9.9 °C 34496.6 hPa Calm     67 % 0 mm 0.0 W/m2 CLR
03:52 -6.5 °C -10.2 °C 34496.6 hPa Calm     66 % 0 mm 0.0 W/m2 CLR
03:57 -6.6 °C -10.1 °C 34496.6 hPa Calm     67 % 0 mm 0.0 W/m2 CLR
04:02 -6.6 °C -10.2 °C 34496.6 hPa Calm     67 % 0 mm 0.0 W/m2 CLR
04:07 -6.7 °C -10.2 °C 34496.6 hPa Calm     67 % 0 mm 0.0 W/m2 CLR
04:12 -6.8 °C -10.2 °C 34486.4 hPa Calm     68 % 0 mm 0.0 W/m2 CLR
04:17 -6.8 °C -10.3 °C 34486.4 hPa Calm     67 % 0 mm 0.0 W/m2 CLR
04:22 -6.8 °C -10.2 °C 34486.4 hPa Calm     68 % 0 mm 0.0 W/m2 CLR
04:27 -6.9 °C -10.1 °C 34486.4 hPa Calm     69 % 0 mm 0.0 W/m2 CLR
04:32 -6.9 °C -10.2 °C 34486.4 hPa Calm     69 % 0 mm 0.0 W/m2 CLR
04:37 -7 °C -10.4 °C 34486.4 hPa Calm     68 % 0 mm 0.0 W/m2 CLR
04:42 -7.1 °C -10.4 °C 34486.4 hPa Calm     68 % 0 mm 0.0 W/m2 CLR
04:47 -7.2 °C -10.4 °C 34486.4 hPa Calm     69 % 0 mm 0.0 W/m2 CLR
04:52 -7.2 °C -10.4 °C 34486.4 hPa Calm     69 % 0 mm 0.0 W/m2 CLR
04:57 -7.2 °C -10.6 °C 34486.4 hPa Calm     68 % 0 mm 0.0 W/m2 CLR
05:02 -7.2 °C -10.6 °C 34486.4 hPa Calm     68 % 0 mm 0.0 W/m2 CLR
05:07 -7.2 °C -10.6 °C 34486.4 hPa Calm     68 % 0 mm 0.0 W/m2 CLR
05:12 -7.3 °C -10.6 °C 34486.4 hPa Calm     68 % 0 mm 0.0 W/m2 CLR
05:17 -7.3 °C -10.7 °C 34486.4 hPa Calm     68 % 0 mm 0.0 W/m2 CLR
05:22 -7.3 °C -10.6 °C 34486.4 hPa Calm     69 % 0 mm 0.0 W/m2 CLR
05:27 -7.3 °C -10.6 °C 34486.4 hPa Calm     69 % 0 mm 0.0 W/m2 CLR
05:32 -7.3 °C -10.4 °C 34486.4 hPa Calm     70 % 0 mm 0.0 W/m2 CLR
05:37 -7.4 °C -10.5 °C 34486.4 hPa Calm     70 % 0 mm 0.0 W/m2 CLR
05:42 -7.6 °C -10.7 °C 34486.4 hPa Calm     69 % 0 mm 0.0 W/m2 CLR
05:48 -7.6 °C -10.8 °C 34486.4 hPa Calm     69 % 0 mm 0.0 W/m2 CLR
05:53 -7.6 °C -10.7 °C 34486.4 hPa Calm     70 % 0 mm 0.0 W/m2 CLR
05:58 -7.6 °C -10.7 °C 34496.6 hPa Calm     70 % 0 mm 0.0 W/m2 CLR
06:03 -7.7 °C -10.6 °C 34496.6 hPa Calm     71 % 0 mm 0.0 W/m2 CLR
06:08 -7.7 °C -10.7 °C 34496.6 hPa Calm     71 % 0 mm 0.0 W/m2 CLR
06:13 -7.7 °C -10.6 °C 34496.6 hPa Calm     72 % 0 mm 0.0 W/m2 CLR
06:18 -7.8 °C -10.6 °C 34496.6 hPa Calm     72 % 0 mm 0.0 W/m2 CLR
06:23 -7.9 °C -10.6 °C 34496.6 hPa Calm     73 % 0 mm 0.0 W/m2 CLR
06:28 -7.9 °C -10.7 °C 34496.6 hPa Calm     73 % 0 mm 0.0 W/m2 CLR
06:33 -8 °C -10.7 °C 34496.6 hPa Calm     73 % 0 mm 0.0 W/m2 OVC
06:38 -8 °C -10.7 °C 34496.6 hPa Calm     73 % 0 mm 0.0 W/m2 OVC
06:43 -8.1 °C -10.9 °C 34496.6 hPa Calm     72 % 0 mm 5.0 W/m2 OVC
06:48 -8.1 °C -10.8 °C 34496.6 hPa Calm     73 % 0 mm 7.0 W/m2 BKN
06:53 -8.1 °C -10.8 °C 34510.1 hPa Calm     73 % 0 mm 9.0 W/m2 BKN
06:58 -8.1 °C -10.8 °C 34510.1 hPa Calm     73 % 0 mm 12.0 W/m2 BKN
07:03 -8.1 °C -10.8 °C 34510.1 hPa Calm     73 % 0 mm 14.0 W/m2 BKN
07:08 -8.1 °C -10.8 °C 34510.1 hPa Calm     73 % 0 mm 18.0 W/m2 BKN
07:13 -8.1 °C -10.8 °C 34510.1 hPa Calm     73 % 0 mm 21.0 W/m2 BKN
07:18 -8.1 °C -10.8 °C 34520.3 hPa Calm     73 % 0 mm 26.0 W/m2 BKN
07:23 -8.1 °C -10.8 °C 34520.3 hPa Calm     73 % 0 mm 37.0 W/m2 BKN
07:28 -7.9 °C -10.7 °C 34520.3 hPa Calm     73 % 0 mm 46.0 W/m2 BKN
07:33 -7.9 °C -10.6 °C 34520.3 hPa Calm     73 % 0 mm 56.0 W/m2 SCT
07:38 -7.8 °C -10.6 °C 34520.3 hPa Calm     72 % 0 mm 67.0 W/m2 SCT
07:43 -7.7 °C -10.7 °C 34520.3 hPa Calm     71 % 0 mm 83.0 W/m2 FEW
07:48 -7.6 °C -10.6 °C 34520.3 hPa Calm     71 % 0 mm 97.0 W/m2 FEW
07:53 -7.6 °C -10.7 °C 34520.3 hPa Calm     70 % 0 mm 111.0 W/m2 CLR
07:58 -7.4 °C -10.5 °C 34520.3 hPa Calm     70 % 0 mm 127.0 W/m2 CLR
08:03 -7.2 °C -10.4 °C 34520.3 hPa Calm     69 % 0 mm 146.0 W/m2 CLR
08:08 -7.1 °C -10.4 °C 34533.8 hPa Calm     68 % 0 mm 163.0 W/m2 CLR
08:13 -6.8 °C -10.3 °C 34533.8 hPa Calm     67 % 0 mm 179.0 W/m2 CLR
08:18 -6.6 °C -10.3 °C 34533.8 hPa Calm     66 % 0 mm 197.0 W/m2 CLR
08:23 -6.4 °C -10.1 °C 34533.8 hPa Calm     66 % 0 mm 216.0 W/m2 CLR
08:28 -6.3 °C -10.1 °C 34533.8 hPa Calm     65 % 0 mm 230.0 W/m2 CLR
08:33 -6.1 °C -9.9 °C 34533.8 hPa Calm     65 % 0 mm 244.0 W/m2 CLR
08:38 -5.9 °C -9.8 °C 34533.8 hPa Calm     64 % 0 mm 258.0 W/m2 CLR
08:43 -5.7 °C -9.6 °C 34520.3 hPa Calm     64 % 0 mm 276.0 W/m2 CLR
08:48 -5.5 °C -9.6 °C 34533.8 hPa Calm     63 % 0 mm 290.0 W/m2 CLR
08:53 -5.3 °C -9.4 °C 34533.8 hPa Calm     63 % 0 mm 306.0 W/m2 CLR
08:58 -5.1 °C -9.4 °C 34533.8 hPa Calm     62 % 0 mm 320.0 W/m2 CLR
09:03 -4.8 °C -9.4 °C 34533.8 hPa Calm     60 % 0 mm 334.0 W/m2 CLR
09:08 -4.7 °C -9.4 °C 34533.8 hPa Calm     59 % 0 mm 353.0 W/m2 CLR
09:13 -4.6 °C -9.4 °C 34533.8 hPa Calm     58 % 0 mm 369.0 W/m2 CLR
09:18 -4.3 °C -9.5 °C 34533.8 hPa Calm     56 % 0 mm 385.0 W/m2 CLR
09:23 -4.3 °C -9.6 °C 34533.8 hPa Calm     55 % 0 mm 399.0 W/m2 CLR
09:28 -4.3 °C -9.4 °C 34533.8 hPa Calm     56 % 0 mm 417.0 W/m2 CLR
09:33 -4.1 °C -9.3 °C 34533.8 hPa Calm     56 % 0 mm 432.0 W/m2 CLR
09:38 -4 °C -9.3 °C 34533.8 hPa Calm     55 % 0 mm 446.0 W/m2 CLR
09:43 -3.9 °C -9.3 °C 34533.8 hPa Calm     55 % 0 mm 464.0 W/m2 CLR
09:48 -3.7 °C -9.2 °C 34520.3 hPa Calm     54 % 0 mm 478.0 W/m2 CLR
09:53 -3.5 °C -9.4 °C 34520.3 hPa Calm     52 % 0 mm 496.0 W/m2 CLR
09:58 -3.5 °C -9.4 °C 34520.3 hPa Calm     52 % 0 mm 508.0 W/m2 CLR
10:03 -3.4 °C -9.4 °C 34520.3 hPa Calm     51 % 0 mm 524.0 W/m2 CLR
10:08 -3.3 °C -9.3 °C 34520.3 hPa Calm     51 % 0 mm 538.0 W/m2 CLR
10:09 -3.2 °C -9.3 °C 34520.3 hPa Calm     51 % 0 mm 545.0 W/m2 CLR
10:14 -3.2 °C -9.4 °C 34520.3 hPa ENE 9 km/h 9 km/h 50 % 0 mm 559.0 W/m2 CLR
10:19 -3.1 °C -9.4 °C 34520.3 hPa NE 9 km/h 9 km/h 50 % 0 mm 573.0 W/m2 CLR
10:24 -3.1 °C -9.2 °C 34520.3 hPa Calm     51 % 0 mm 584.0 W/m2 CLR
10:29 -3.1 °C -9.3 °C 34520.3 hPa SSE 11.9 km/h 11.9 km/h 50 % 0 mm 601.0 W/m2 CLR
10:34 -3.2 °C -9.4 °C 34520.3 hPa East 17.9 km/h 17.9 km/h 50 % 0 mm 613.0 W/m2 CLR
10:39 -3.2 °C -9.3 °C 34520.3 hPa NE 15 km/h 15 km/h 51 % 0 mm 626.0 W/m2 CLR
10:44 -3 °C -9.3 °C 34520.3 hPa ENE 9 km/h   50 % 0 mm 640.0 W/m2 CLR
10:49 -2.9 °C -9.2 °C 34520.3 hPa NE 9 km/h 9 km/h 50 % 0 mm 652.0 W/m2 CLR
10:54 -2.9 °C -9.2 °C 34510.1 hPa East 15.6 km/h 15.6 km/h 50 % 0 mm 666.0 W/m2 CLR
10:56 -2.9 °C -9.2 °C 34510.1 hPa East 11.9 km/h 11.9 km/h 50 % 0 mm 670.0 W/m2 CLR
11:01 -3 °C -9.3 °C 34510.1 hPa East 15 km/h 15 km/h 50 % 0 mm 684.0 W/m2 CLR
11:06 -2.9 °C -9.2 °C 34510.1 hPa ESE 3.1 km/h 3.1 km/h 50 % 0 mm 696.0 W/m2 CLR
11:11 -2.7 °C -9.1 °C 34510.1 hPa ENE 11.9 km/h 11.9 km/h 49 % 0 mm 707.0 W/m2 CLR
11:16 -2.6 °C -9.1 °C 34510.1 hPa ENE 2.6 km/h 2.6 km/h 49 % 0 mm 717.0 W/m2 CLR
11:21 -2.5 °C -9.2 °C 34510.1 hPa East 3.1 km/h 3.1 km/h 48 % 0 mm 729.0 W/m2 CLR
11:26 -2.4 °C -9.3 °C 34510.1 hPa ENE 15 km/h 15 km/h 47 % 0 mm 742.0 W/m2 CLR
11:31 -2.3 °C -9.1 °C 34510.1 hPa ESE 6 km/h   47 % 0 mm 754.0 W/m2 CLR
11:36 -2.2 °C -9.3 °C 34510.1 hPa Calm     46 % 0 mm 763.0 W/m2 CLR
11:41 -2 °C -9.3 °C 34496.6 hPa NE 9 km/h   45 % 0 mm 773.0 W/m2 CLR
11:46 -1.9 °C -9.3 °C 34496.6 hPa Calm   0.3 km/h 44 % 0 mm 786.0 W/m2 CLR
11:51 -1.9 °C -9.2 °C 34496.6 hPa North 5.1 km/h 5.1 km/h 45 % 0 mm 793.0 W/m2 CLR
11:56 -1.8 °C -9.1 °C 34496.6 hPa ENE 9 km/h 9 km/h 45 % 0 mm 802.0 W/m2 CLR
12:01 -1.8 °C -9.1 °C 34496.6 hPa ENE 9 km/h 9 km/h 45 % 0 mm 810.0 W/m2 CLR
12:06 -1.6 °C -9.1 °C 34496.6 hPa NE 6 km/h 6 km/h 44 % 0 mm 819.0 W/m2 CLR
12:11 -1.4 °C -8.9 °C 34496.6 hPa ENE 12.9 km/h 12.9 km/h 44 % 0 mm 831.0 W/m2 CLR
12:16 -1.4 °C -8.9 °C 34486.4 hPa ENE 20.9 km/h 20.9 km/h 44 % 0 mm 837.0 W/m2 CLR
12:21 -1.2 °C -9 °C 34486.4 hPa North 11.9 km/h 11.9 km/h 43 % 0 mm 847.0 W/m2 CLR
12:26 -1.2 °C -8.9 °C 34486.4 hPa ENE 9 km/h 9 km/h 43 % 0 mm 853.0 W/m2 CLR
12:31 -1.2 °C -8.9 °C 34486.4 hPa North 11.9 km/h 11.9 km/h 43 % 0 mm 861.0 W/m2 CLR
12:36 -1.1 °C -8.8 °C 34486.4 hPa NNW 15 km/h 15 km/h 43 % 0 mm 868.0 W/m2 CLR
12:41 -1.1 °C -8.8 °C 34486.4 hPa North 11.9 km/h 11.9 km/h 43 % 0 mm 870.0 W/m2 CLR
12:46 -0.9 °C -8.8 °C 34476.3 hPa NE 9 km/h 9 km/h 42 % 0 mm 879.0 W/m2 CLR
12:51 -0.7 °C -8.9 °C 34476.3 hPa East 23.8 km/h 23.8 km/h 41 % 0 mm 882.0 W/m2 CLR
12:56 -0.7 °C -8.8 °C 34476.3 hPa Calm     41 % 0 mm 893.0 W/m2 CLR
13:01 -0.6 °C -8.6 °C 34476.3 hPa ENE 15.6 km/h 15.6 km/h 42 % 0 mm 895.0 W/m2 CLR
13:06 -0.4 °C -8.8 °C 34476.3 hPa NNW 20.9 km/h 20.9 km/h 40 % 0 mm 900.0 W/m2 CLR
13:11 -0.4 °C -8.8 °C 34462.7 hPa NNE 15 km/h 15 km/h 40 % 0 mm 905.0 W/m2 CLR
13:16 -0.2 °C -8.7 °C 34462.7 hPa NE 15 km/h 15 km/h 40 % 0 mm 911.0 W/m2 CLR
13:21 -0.2 °C -8.7 °C 34462.7 hPa NE 6 km/h 6 km/h 40 % 0 mm 914.0 W/m2 CLR
13:26 -0.1 °C -8.8 °C 34462.7 hPa NNE 15.6 km/h 15.6 km/h 39 % 0 mm 918.0 W/m2 CLR
13:31 -0.1 °C -8.8 °C 34452.6 hPa ENE 15 km/h 15 km/h 39 % 0 mm 918.0 W/m2 CLR
13:36 -0.1 °C -8.7 °C 34452.6 hPa Calm     39 % 0 mm 926.0 W/m2 CLR
13:41 0.2 °C -8.6 °C 34452.6 hPa NE 10.3 km/h 10.3 km/h 39 % 0 mm 921.0 W/m2 CLR
13:46 0.4 °C -8.4 °C 34452.6 hPa NE 20.9 km/h 20.9 km/h 39 % 0 mm 923.0 W/m2 CLR
13:51 0.5 °C -8.5 °C 34442.4 hPa NNE 2.6 km/h   38 % 0 mm 930.0 W/m2 CLR
13:56 0.6 °C -8.4 °C 34442.4 hPa NE 10.3 km/h 10.3 km/h 38 % 0 mm 928.0 W/m2 CLR
14:01 0.7 °C -8.6 °C 34442.4 hPa ENE 3.1 km/h 3.1 km/h 37 % 0 mm 926.0 W/m2 CLR
14:06 0.9 °C -8.4 °C 34428.8 hPa ENE 9 km/h 9 km/h 37 % 0 mm 930.0 W/m2 CLR
14:11 1 °C -8.6 °C 34428.8 hPa ENE 11.9 km/h   36 % 0 mm 930.0 W/m2 CLR
14:16 1.1 °C -8.2 °C 34428.8 hPa ENE 23.8 km/h 23.8 km/h 37 % 0 mm 923.0 W/m2 CLR
14:17 1.1 °C -8.2 °C 34428.8 hPa ENE 23.8 km/h 23.8 km/h 37 % 0 mm 923.0 W/m2 CLR
14:22 1.1 °C -8.2 °C 34428.8 hPa ENE 23.8 km/h 23.8 km/h 37 % 0 mm 923.0 W/m2 CLR
14:27 1 °C -8.5 °C 34428.8 hPa ENE 17.9 km/h   36 % 0 mm 923.0 W/m2 CLR
14:32 1.2 °C -8.7 °C 34428.8 hPa East 11.9 km/h 11.9 km/h 35 % 0 mm 923.0 W/m2 CLR
14:37 1.1 °C -8.4 °C 34418.7 hPa ENE 23.8 km/h 23.8 km/h 36 % 0 mm 912.0 W/m2 CLR
14:42 1.2 °C -8.4 °C 34418.7 hPa East 3.1 km/h   36 % 0 mm 912.0 W/m2 CLR
14:47 1.2 °C -8.1 °C 34418.7 hPa East 29.8 km/h 29.8 km/h 37 % 0 mm 914.0 W/m2 CLR
14:52 1.2 °C -8.2 °C 34418.7 hPa NNE 17.9 km/h 17.9 km/h 37 % 0 mm 900.0 W/m2 CLR
14:57 1.2 °C -8.1 °C 34418.7 hPa ENE 9 km/h   37 % 0 mm 902.0 W/m2 CLR
15:02 1.3 °C -8.1 °C 34418.7 hPa Calm     37 % 0 mm 895.0 W/m2 CLR
15:07 1.4 °C -7.7 °C 34418.7 hPa ENE 26.9 km/h 26.9 km/h 38 % 0 mm 895.0 W/m2 CLR
15:12 1.3 °C -8.2 °C 34418.7 hPa NE 28.5 km/h 28.5 km/h 36 % 0 mm 889.0 W/m2 CLR
15:17 1.3 °C -7.9 °C 34405.1 hPa East 26.9 km/h 26.9 km/h 37 % 0 mm 879.0 W/m2 CLR
15:22 1.3 °C -7.8 °C 34405.1 hPa ESE 35.7 km/h 35.7 km/h 38 % 0 mm 872.0 W/m2 CLR
15:27 1.3 °C -8 °C 34405.1 hPa ENE 29.8 km/h 29.8 km/h 37 % 0 mm 872.0 W/m2 CLR
15:32 1.4 °C -8.2 °C 34405.1 hPa ENE 29.8 km/h 29.8 km/h 36 % 0 mm 865.0 W/m2 CLR
15:37 1.4 °C -7.9 °C 34405.1 hPa ENE 29.8 km/h 29.8 km/h 37 % 0 mm 861.0 W/m2 CLR
15:42 1.5 °C -8.1 °C 34405.1 hPa SE 29.8 km/h 29.8 km/h 36 % 0 mm 856.0 W/m2 CLR
15:47 1.4 °C -7.9 °C 34395 hPa ENE 35.7 km/h 35.7 km/h 37 % 0 mm 844.0 W/m2 CLR
15:52 1.5 °C -7.9 °C 34395 hPa ENE 26.9 km/h 26.9 km/h 37 % 0 mm 835.0 W/m2 CLR
15:57 1.6 °C -8 °C 34395 hPa ESE 20.9 km/h 20.9 km/h 36 % 0 mm 830.0 W/m2 CLR
16:02 1.5 °C -7.9 °C 34395 hPa ESE 23.8 km/h 23.8 km/h 37 % 0 mm 823.0 W/m2 CLR
16:07 1.5 °C -8.1 °C 34395 hPa ENE 29.8 km/h 29.8 km/h 36 % 0 mm 810.0 W/m2 CLR
16:12 1.6 °C -8 °C 34395 hPa ENE 26.9 km/h 26.9 km/h 36 % 0 mm 803.0 W/m2 CLR
16:17 1.7 °C -7.9 °C 34384.8 hPa NNE 29.8 km/h 29.8 km/h 36 % 0 mm 789.0 W/m2 CLR
16:22 1.8 °C -7.8 °C 34384.8 hPa East 29.8 km/h 29.8 km/h 36 % 0 mm 784.0 W/m2 CLR
16:27 1.6 °C -8 °C 34384.8 hPa NNE 20.9 km/h 20.9 km/h 36 % 0 mm 759.0 W/m2 CLR
16:32 1.7 °C -7.7 °C 34384.8 hPa ESE 9 km/h 9 km/h 37 % 0 mm 756.0 W/m2 CLR
16:37 1.8 °C -8.1 °C 34384.8 hPa SE 35.7 km/h 35.7 km/h 35 % 0 mm 744.0 W/m2 CLR
16:42 1.8 °C -7.8 °C 34384.8 hPa East 38.8 km/h 38.8 km/h 36 % 0 mm 733.0 W/m2 CLR
16:47 1.7 °C -7.9 °C 34384.8 hPa ESE 29.8 km/h 29.8 km/h 36 % 0 mm 710.0 W/m2 CLR
16:52 1.6 °C -8 °C 34384.8 hPa ENE 38.8 km/h 38.8 km/h 36 % 0 mm 708.0 W/m2 CLR
16:57 1.6 °C -8.1 °C 34371.3 hPa East 18.2 km/h 18.2 km/h 36 % 0 mm 707.0 W/m2 CLR
17:02 1.6 °C -8 °C 34384.8 hPa ESE 11.9 km/h 11.9 km/h 36 % 0 mm 693.0 W/m2 CLR
17:07 1.6 °C -7.8 °C 34371.3 hPa SE 38.8 km/h 38.8 km/h 37 % 0 mm 673.0 W/m2 CLR
17:12 1.6 °C -7.8 °C 34384.8 hPa SSE 35.7 km/h 35.7 km/h 37 % 0 mm 664.0 W/m2 CLR
17:17 1.5 °C -8.1 °C 34371.3 hPa ESE 29.8 km/h 29.8 km/h 36 % 0 mm 657.0 W/m2 CLR
17:22 1.4 °C -8.2 °C 34371.3 hPa ESE 38.8 km/h 38.8 km/h 36 % 0 mm 647.0 W/m2 CLR
17:27 1.3 °C -8.2 °C 34371.3 hPa SE 44.7 km/h 44.7 km/h 36 % 0 mm 635.0 W/m2 CLR
17:32 1.3 °C -8.1 °C 34371.3 hPa SE 29.8 km/h 29.8 km/h 37 % 0 mm 621.0 W/m2 CLR
17:37 1.3 °C -8 °C 34371.3 hPa SSE 20.9 km/h 20.9 km/h 37 % 0 mm 606.0 W/m2 CLR
17:42 1.3 °C -8.2 °C 34371.3 hPa ESE 26.9 km/h 26.9 km/h 36 % 0 mm 596.0 W/m2 CLR
17:47 1.2 °C -8.4 °C 34371.3 hPa SE 35.7 km/h 35.7 km/h 36 % 0 mm 587.0 W/m2 CLR
17:52 1.1 °C -8.4 °C 34371.3 hPa SE 35.7 km/h 35.7 km/h 36 % 0 mm 570.0 W/m2 CLR
17:57 1.2 °C -8.6 °C 34371.3 hPa ESE 35.7 km/h 35.7 km/h 35 % 0 mm 555.0 W/m2 CLR
18:02 1.1 °C -8.4 °C 34371.3 hPa East 38.8 km/h 38.8 km/h 36 % 0 mm 545.0 W/m2 CLR
18:07 1.1 °C -8.7 °C 34371.3 hPa SE 41.4 km/h 41.4 km/h 35 % 0 mm 534.0 W/m2 CLR
18:12 0.9 °C -8.8 °C 34371.3 hPa SE 47.6 km/h 47.6 km/h 35 % 0 mm 526.0 W/m2 CLR
18:17 0.9 °C -8.6 °C 34361.1 hPa SE 47.6 km/h 47.6 km/h 36 % 0 mm 513.0 W/m2 CLR
18:22 0.9 °C -8.8 °C 34361.1 hPa SE 38.8 km/h 38.8 km/h 35 % 0 mm 504.0 W/m2 CLR
18:27 0.9 °C -8.8 °C 34361.1 hPa SE 32.8 km/h 32.8 km/h 35 % 0 mm 392.0 W/m2 CLR
18:32 0.9 °C -8.8 °C 34361.1 hPa SSE 44.7 km/h 44.7 km/h 35 % 0 mm 295.0 W/m2 CLR
18:37 0.8 °C -8.9 °C 34361.1 hPa ESE 38.8 km/h 38.8 km/h 35 % 0 mm 308.0 W/m2 CLR
18:42 0.7 °C -9 °C 34361.1 hPa ESE 41.7 km/h 41.7 km/h 35 % 0 mm 352.0 W/m2 CLR
18:47 0.8 °C -9.2 °C 34361.1 hPa SE 38.8 km/h 38.8 km/h 34 % 0 mm 385.0 W/m2 CLR
18:52 0.7 °C -9.3 °C 34361.1 hPa East 35.7 km/h 35.7 km/h 34 % 0 mm 396.0 W/m2 CLR
18:57 0.7 °C -9.5 °C 34361.1 hPa ESE 44.7 km/h 44.7 km/h 33 % 0 mm 396.0 W/m2 CLR
19:02 0.7 °C -9.6 °C 34361.1 hPa SE 29.8 km/h 29.8 km/h 33 % 0 mm 318.0 W/m2 CLR
19:07 0.7 °C -9.8 °C 34371.3 hPa East 38.8 km/h 38.8 km/h 32 % 0 mm 323.0 W/m2 CLR
19:12 0.7 °C -9.6 °C 34361.1 hPa SE 32.8 km/h 32.8 km/h 33 % 0 mm 262.0 W/m2 CLR
19:17 0.7 °C -9.8 °C 34361.1 hPa ESE 32.8 km/h 32.8 km/h 32 % 0 mm 329.0 W/m2 CLR
19:22 0.7 °C -9.8 °C 34361.1 hPa ESE 32.8 km/h 32.8 km/h 32 % 0 mm 301.0 W/m2 CLR
19:28 0.6 °C -9.9 °C 34361.1 hPa SE 32.8 km/h 32.8 km/h 32 % 0 mm 227.0 W/m2 CLR
19:33 0.6 °C -9.7 °C 34361.1 hPa SE 29.8 km/h 29.8 km/h 33 % 0 mm 206.0 W/m2 CLR
19:38 0.6 °C -9.7 °C 34361.1 hPa SE 26.9 km/h 26.9 km/h 33 % 0 mm 174.0 W/m2 CLR
19:43 0.6 °C -9.7 °C 34371.3 hPa SE 32.8 km/h 32.8 km/h 33 % 0 mm 195.0 W/m2 CLR
19:48 0.5 °C -9.7 °C 34361.1 hPa SSE 35.7 km/h 35.7 km/h 33 % 0 mm 174.0 W/m2 CLR
19:53 0.4 °C -9.8 °C 34371.3 hPa SE 41.7 km/h 41.7 km/h 33 % 0 mm 146.0 W/m2 CLR
19:58 0.4 °C -9.8 °C 34371.3 hPa SSE 26.9 km/h 26.9 km/h 33 % 0 mm 141.0 W/m2 CLR
20:03 0.3 °C -9.6 °C 34371.3 hPa SSE 32.8 km/h 32.8 km/h 34 % 0 mm 111.0 W/m2 CLR
20:08 0.3 °C -9.7 °C 34371.3 hPa SSE 26.9 km/h 26.9 km/h 34 % 0 mm 65.0 W/m2 CLR
20:13 0.2 °C -9.8 °C 34371.3 hPa SE 29.8 km/h 29.8 km/h 34 % 0 mm 63.0 W/m2 FEW
20:18 0.1 °C -9.3 °C 34371.3 hPa SE 32.8 km/h 32.8 km/h 36 % 0 mm 54.0 W/m2 SCT
20:23 -0.1 °C -9.3 °C 34371.3 hPa SSE 23.8 km/h 23.8 km/h 37 % 0 mm 53.0 W/m2 SCT
20:28 -0.2 °C -9.1 °C 34371.3 hPa SE 35.7 km/h 35.7 km/h 38 % 0 mm 49.0 W/m2 SCT
20:33 -0.3 °C -8.9 °C 34371.3 hPa South 23.8 km/h 23.8 km/h 39 % 0 mm 46.0 W/m2 SCT
20:38 -0.3 °C -9 °C 34371.3 hPa SE 15.6 km/h 15.6 km/h 39 % 0 mm 47.0 W/m2 SCT
20:43 -0.4 °C -8.8 °C 34371.3 hPa SSE 20.9 km/h 21.2 km/h 40 % 0 mm 42.0 W/m2 BKN
20:48 -0.5 °C -8.9 °C 34371.3 hPa SSE 12.9 km/h 12.9 km/h 40 % 0 mm 35.0 W/m2 BKN
20:53 -0.6 °C -9 °C 34371.3 hPa SE 15.6 km/h 15.6 km/h 40 % 0 mm 35.0 W/m2 BKN
20:58 -0.7 °C -8.9 °C 34384.8 hPa SE 20.9 km/h 20.9 km/h 41 % 0 mm 28.0 W/m2 BKN
21:03 -0.8 °C -9 °C 34384.8 hPa SSE 23.8 km/h 23.8 km/h 41 % 0 mm 23.0 W/m2 BKN
21:08 -0.9 °C -8.8 °C 34384.8 hPa SE 15.6 km/h 15.6 km/h 42 % 0 mm 19.0 W/m2 BKN
21:13 -1 °C -8.9 °C 34384.8 hPa SSE 20.8 km/h 20.8 km/h 42 % 0 mm 16.0 W/m2 BKN
21:18 -1.1 °C -8.8 °C 34384.8 hPa SE 29.8 km/h 29.8 km/h 43 % 0 mm 14.0 W/m2 BKN
21:23 -1.2 °C -8.9 °C 34384.8 hPa SSE 15 km/h 15 km/h 43 % 0 mm 9.0 W/m2 BKN
21:28 -1.3 °C -8.8 °C 34384.8 hPa SE 20.9 km/h 20.9 km/h 44 % 0 mm 5.0 W/m2 OVC
21:33 -1.4 °C -8.7 °C 34384.8 hPa SE 18.2 km/h 18.2 km/h 45 % 0 mm 0.0 W/m2 OVC
21:38 -1.5 °C -8.7 °C 34384.8 hPa SE 9 km/h 9 km/h 46 % 0 mm 0.0 W/m2 OVC
21:43 -1.6 °C -8.7 °C 34384.8 hPa SSE 20.9 km/h 20.9 km/h 46 % 0 mm 0.0 W/m2 CLR
21:48 -1.7 °C -8.6 °C 34395 hPa ESE 9 km/h 11.4 km/h 47 % 0 mm 0.0 W/m2 CLR
21:53 -1.8 °C -8.7 °C 34395 hPa SE 18.2 km/h 18.2 km/h 47 % 0 mm 0.0 W/m2 CLR
21:58 -1.8 °C -8.7 °C 34395 hPa SSE 15 km/h 15 km/h 47 % 0 mm 0.0 W/m2 CLR
22:03 -1.9 °C -8.6 °C 34395 hPa SE 15 km/h 15 km/h 48 % 0 mm 0.0 W/m2 CLR
22:08 -2 °C -8.7 °C 34395 hPa Calm     48 % 0 mm 0.0 W/m2 CLR
22:13 -2.1 °C -8.6 °C 34395 hPa SE 15.6 km/h 15.6 km/h 49 % 0 mm 0.0 W/m2 CLR
22:18 -2.1 °C -8.7 °C 34395 hPa SE 23.8 km/h 23.8 km/h 49 % 0 mm 0.0 W/m2 CLR
22:23 -2.2 °C -8.6 °C 34405.1 hPa SE 20.9 km/h 20.9 km/h 50 % 0 mm 0.0 W/m2 CLR
22:28 -2.3 °C -8.6 °C 34405.1 hPa SE 20.9 km/h 20.9 km/h 50 % 0 mm 0.0 W/m2 CLR
22:33 -2.3 °C -8.4 °C 34405.1 hPa SSE 17.9 km/h 17.9 km/h 51 % 0 mm 0.0 W/m2 CLR
22:38 -2.4 °C -8.5 °C 34405.1 hPa SE 6 km/h   51 % 0 mm 0.0 W/m2 CLR
22:43 -2.4 °C -8.6 °C 34405.1 hPa Calm     51 % 0 mm 0.0 W/m2 CLR
22:48 -2.4 °C -8.6 °C 34405.1 hPa Calm     51 % 0 mm 0.0 W/m2 CLR
22:53 -2.4 °C -8.6 °C 34405.1 hPa Calm     51 % 0 mm 0.0 W/m2 CLR
22:54 -2.5 °C -8.7 °C 34405.1 hPa Calm     51 % 0 mm 0.0 W/m2 CLR
22:59 -2.6 °C -8.7 °C 34405.1 hPa Calm     51 % 0 mm 0.0 W/m2 CLR
23:04 -2.6 °C -8.7 °C 34405.1 hPa Calm     51 % 0 mm 0.0 W/m2 CLR
23:09 -2.7 °C -8.6 °C 34405.1 hPa Calm     52 % 0 mm 0.0 W/m2 CLR
23:14 -2.7 °C -8.7 °C 34405.1 hPa Calm     52 % 0 mm 0.0 W/m2 CLR
23:19 -2.8 °C -8.6 °C 34405.1 hPa Calm     53 % 0 mm 0.0 W/m2 CLR
23:24 -2.9 °C -8.7 °C 34405.1 hPa Calm     53 % 0 mm 0.0 W/m2 CLR
23:29 -2.9 °C -8.7 °C 34405.1 hPa Calm     53 % 0 mm 0.0 W/m2 CLR
23:34 -3 °C -8.6 °C 34405.1 hPa Calm     54 % 0 mm 0.0 W/m2 CLR
23:39 -3.1 °C -8.7 °C 34418.7 hPa Calm     54 % 0 mm 0.0 W/m2 CLR
23:44 -3.2 °C -8.4 °C 34418.7 hPa Calm     56 % 0 mm 0.0 W/m2 CLR
23:49 -3.4 °C -8.3 °C 34418.7 hPa Calm     58 % 0 mm 0.0 W/m2 CLR
23:54 -3.5 °C -8.2 °C 34418.7 hPa Calm     60 % 0 mm 0.0 W/m2 CLR
23:59 -3.7 °C -8 °C 34418.7 hPa East 9 km/h 9 km/h 62 % 0 mm 0.0 W/m2 CLR
Lo Temps de Massalio
Compliments of Weather Underground - 1.25 mb